sensor_id;sensor_type;location;lat;lon;timestamp;P1;durP1;ratioP1;P2;durP2;ratioP2
70727;SDS011;58314;47.722;17.652;2022-10-17T00:00:22;12.07;;;10.88;;
70727;SDS011;58314;47.722;17.652;2022-10-17T00:03:23;14.57;;;11.40;;
70727;SDS011;58314;47.722;17.652;2022-10-17T00:06:23;13.77;;;11.13;;
70727;SDS011;58314;47.722;17.652;2022-10-17T00:09:24;13.18;;;11.55;;
70727;SDS011;58314;47.722;17.652;2022-10-17T00:12:25;12.43;;;11.13;;
70727;SDS011;58314;47.722;17.652;2022-10-17T00:15:25;13.48;;;11.18;;
70727;SDS011;58314;47.722;17.652;2022-10-17T00:18:26;13.15;;;11.18;;
70727;SDS011;58314;47.722;17.652;2022-10-17T00:21:27;12.82;;;11.50;;
70727;SDS011;58314;47.722;17.652;2022-10-17T00:24:29;13.65;;;11.30;;
70727;SDS011;58314;47.722;17.652;2022-10-17T00:27:33;12.55;;;11.13;;
70727;SDS011;58314;47.722;17.652;2022-10-17T00:30:35;12.50;;;11.13;;
70727;SDS011;58314;47.722;17.652;2022-10-17T00:33:35;12.93;;;11.27;;
70727;SDS011;58314;47.722;17.652;2022-10-17T00:36:36;14.30;;;11.63;;
70727;SDS011;58314;47.722;17.652;2022-10-17T00:39:37;13.00;;;11.60;;
70727;SDS011;58314;47.722;17.652;2022-10-17T00:42:38;12.82;;;11.07;;
70727;SDS011;58314;47.722;17.652;2022-10-17T00:45:39;13.60;;;11.70;;
70727;SDS011;58314;47.722;17.652;2022-10-17T00:48:39;13.82;;;11.50;;
70727;SDS011;58314;47.722;17.652;2022-10-17T00:54:47;13.95;;;11.88;;
70727;SDS011;58314;47.722;17.652;2022-10-17T00:57:51;13.75;;;10.90;;
70727;SDS011;58314;47.722;17.652;2022-10-17T01:00:52;16.38;;;11.60;;
70727;SDS011;58314;47.722;17.652;2022-10-17T01:03:52;15.35;;;11.85;;
70727;SDS011;58314;47.722;17.652;2022-10-17T01:06:53;14.60;;;11.45;;
70727;SDS011;58314;47.722;17.652;2022-10-17T01:09:54;12.30;;;11.10;;
70727;SDS011;58314;47.722;17.652;2022-10-17T01:16:03;14.13;;;12.63;;
70727;SDS011;58314;47.722;17.652;2022-10-17T01:19:28;13.75;;;12.15;;
70727;SDS011;58314;47.722;17.652;2022-10-17T01:32:56;14.50;;;12.15;;
70727;SDS011;58314;47.722;17.652;2022-10-17T01:39:39;14.35;;;12.55;;
70727;SDS011;58314;47.722;17.652;2022-10-17T01:42:51;14.50;;;11.98;;
70727;SDS011;58314;47.722;17.652;2022-10-17T01:46:15;13.18;;;11.48;;
70727;SDS011;58314;47.722;17.652;2022-10-17T01:49:22;12.45;;;11.18;;
70727;SDS011;58314;47.722;17.652;2022-10-17T01:52:47;14.30;;;12.10;;
70727;SDS011;58314;47.722;17.652;2022-10-17T01:55:53;12.50;;;11.30;;
70727;SDS011;58314;47.722;17.652;2022-10-17T01:58:59;16.75;;;12.27;;
70727;SDS011;58314;47.722;17.652;2022-10-17T02:02:06;12.32;;;11.13;;
70727;SDS011;58314;47.722;17.652;2022-10-17T02:05:09;13.27;;;11.80;;
70727;SDS011;58314;47.722;17.652;2022-10-17T02:08:10;15.02;;;11.85;;
70727;SDS011;58314;47.722;17.652;2022-10-17T02:11:18;14.10;;;12.13;;
70727;SDS011;58314;47.722;17.652;2022-10-17T02:14:24;14.90;;;12.35;;
70727;SDS011;58314;47.722;17.652;2022-10-17T02:21:05;13.45;;;11.68;;
70727;SDS011;58314;47.722;17.652;2022-10-17T02:24:17;14.13;;;11.15;;
70727;SDS011;58314;47.722;17.652;2022-10-17T02:27:55;13.15;;;11.77;;
70727;SDS011;58314;47.722;17.652;2022-10-17T02:31:08;13.10;;;11.13;;
70727;SDS011;58314;47.722;17.652;2022-10-17T02:34:20;14.82;;;11.77;;
70727;SDS011;58314;47.722;17.652;2022-10-17T02:37:29;12.45;;;11.25;;
70727;SDS011;58314;47.722;17.652;2022-10-17T02:40:31;17.58;;;12.10;;
70727;SDS011;58314;47.722;17.652;2022-10-17T02:43:33;13.52;;;12.13;;
70727;SDS011;58314;47.722;17.652;2022-10-17T02:46:35;13.45;;;12.02;;
70727;SDS011;58314;47.722;17.652;2022-10-17T02:49:42;15.35;;;12.15;;
70727;SDS011;58314;47.722;17.652;2022-10-17T02:52:51;13.30;;;11.82;;
70727;SDS011;58314;47.722;17.652;2022-10-17T02:55:59;16.00;;;11.90;;
70727;SDS011;58314;47.722;17.652;2022-10-17T02:59:05;14.07;;;11.35;;
70727;SDS011;58314;47.722;17.652;2022-10-17T03:02:08;15.80;;;11.95;;
70727;SDS011;58314;47.722;17.652;2022-10-17T03:05:10;14.02;;;11.85;;
70727;SDS011;58314;47.722;17.652;2022-10-17T03:08:12;16.48;;;12.18;;
70727;SDS011;58314;47.722;17.652;2022-10-17T03:11:12;14.25;;;12.75;;
70727;SDS011;58314;47.722;17.652;2022-10-17T03:14:13;14.65;;;13.15;;
70727;SDS011;58314;47.722;17.652;2022-10-17T03:17:14;14.27;;;12.77;;
70727;SDS011;58314;47.722;17.652;2022-10-17T03:20:14;14.82;;;13.32;;
70727;SDS011;58314;47.722;17.652;2022-10-17T03:23:15;14.82;;;13.32;;
70727;SDS011;58314;47.722;17.652;2022-10-17T03:26:15;16.88;;;14.18;;
70727;SDS011;58314;47.722;17.652;2022-10-17T03:29:16;15.40;;;13.77;;
70727;SDS011;58314;47.722;17.652;2022-10-17T03:32:17;16.17;;;14.02;;
70727;SDS011;58314;47.722;17.652;2022-10-17T03:35:17;15.88;;;14.10;;
70727;SDS011;58314;47.722;17.652;2022-10-17T03:38:18;17.83;;;14.77;;
70727;SDS011;58314;47.722;17.652;2022-10-17T03:41:19;17.45;;;15.65;;
70727;SDS011;58314;47.722;17.652;2022-10-17T03:44:19;19.35;;;16.80;;
70727;SDS011;58314;47.722;17.652;2022-10-17T03:47:20;17.98;;;16.17;;
70727;SDS011;58314;47.722;17.652;2022-10-17T03:50:21;19.00;;;16.98;;
70727;SDS011;58314;47.722;17.652;2022-10-17T03:53:21;18.55;;;16.58;;
70727;SDS011;58314;47.722;17.652;2022-10-17T03:56:26;18.23;;;16.00;;
70727;SDS011;58314;47.722;17.652;2022-10-17T03:59:27;17.52;;;15.68;;
70727;SDS011;58314;47.722;17.652;2022-10-17T04:02:27;18.33;;;16.02;;
70727;SDS011;58314;47.722;17.652;2022-10-17T04:05:28;18.30;;;15.88;;
70727;SDS011;58314;47.722;17.652;2022-10-17T04:08:29;16.92;;;15.23;;
70727;SDS011;58314;47.722;17.652;2022-10-17T04:11:31;16.67;;;14.95;;
70727;SDS011;58314;47.722;17.652;2022-10-17T04:14:32;18.10;;;14.77;;
70727;SDS011;58314;47.722;17.652;2022-10-17T04:17:33;17.63;;;15.77;;
70727;SDS011;58314;47.722;17.652;2022-10-17T04:20:33;16.30;;;14.75;;
70727;SDS011;58314;47.722;17.652;2022-10-17T04:23:34;16.48;;;14.88;;
70727;SDS011;58314;47.722;17.652;2022-10-17T04:26:36;17.80;;;15.73;;
70727;SDS011;58314;47.722;17.652;2022-10-17T04:29:36;16.38;;;14.80;;
70727;SDS011;58314;47.722;17.652;2022-10-17T04:32:37;17.67;;;15.82;;
70727;SDS011;58314;47.722;17.652;2022-10-17T04:35:38;16.67;;;14.88;;
70727;SDS011;58314;47.722;17.652;2022-10-17T04:38:39;16.85;;;15.15;;
70727;SDS011;58314;47.722;17.652;2022-10-17T04:41:39;16.02;;;14.38;;
70727;SDS011;58314;47.722;17.652;2022-10-17T04:44:40;16.98;;;15.18;;
70727;SDS011;58314;47.722;17.652;2022-10-17T04:47:41;18.50;;;16.15;;
70727;SDS011;58314;47.722;17.652;2022-10-17T04:50:51;16.85;;;15.10;;
70727;SDS011;58314;47.722;17.652;2022-10-17T04:53:56;16.75;;;14.95;;
70727;SDS011;58314;47.722;17.652;2022-10-17T04:56:56;16.02;;;14.48;;
70727;SDS011;58314;47.722;17.652;2022-10-17T04:59:57;20.23;;;16.35;;
70727;SDS011;58314;47.722;17.652;2022-10-17T05:02:57;17.17;;;15.50;;
70727;SDS011;58314;47.722;17.652;2022-10-17T05:05:58;16.38;;;14.63;;
70727;SDS011;58314;47.722;17.652;2022-10-17T05:09:03;16.70;;;14.95;;
70727;SDS011;58314;47.722;17.652;2022-10-17T05:12:03;16.60;;;14.90;;
70727;SDS011;58314;47.722;17.652;2022-10-17T05:15:04;18.15;;;16.20;;
70727;SDS011;58314;47.722;17.652;2022-10-17T05:18:06;17.45;;;15.85;;
70727;SDS011;58314;47.722;17.652;2022-10-17T05:21:06;19.77;;;16.58;;
70727;SDS011;58314;47.722;17.652;2022-10-17T05:24:07;18.17;;;15.73;;
70727;SDS011;58314;47.722;17.652;2022-10-17T05:27:10;17.75;;;16.05;;
70727;SDS011;58314;47.722;17.652;2022-10-17T05:30:11;19.92;;;16.50;;
70727;SDS011;58314;47.722;17.652;2022-10-17T05:33:12;17.75;;;15.95;;
70727;SDS011;58314;47.722;17.652;2022-10-17T05:36:12;17.10;;;15.50;;
70727;SDS011;58314;47.722;17.652;2022-10-17T05:39:13;18.80;;;16.90;;
70727;SDS011;58314;47.722;17.652;2022-10-17T05:42:18;17.83;;;16.10;;
70727;SDS011;58314;47.722;17.652;2022-10-17T05:45:19;18.27;;;16.58;;
70727;SDS011;58314;47.722;17.652;2022-10-17T05:48:20;17.70;;;15.30;;
70727;SDS011;58314;47.722;17.652;2022-10-17T05:51:22;17.67;;;15.80;;
70727;SDS011;58314;47.722;17.652;2022-10-17T05:54:22;17.88;;;15.98;;
70727;SDS011;58314;47.722;17.652;2022-10-17T05:57:24;19.13;;;15.70;;
70727;SDS011;58314;47.722;17.652;2022-10-17T06:00:25;16.98;;;15.23;;
70727;SDS011;58314;47.722;17.652;2022-10-17T06:03:25;17.52;;;15.57;;
70727;SDS011;58314;47.722;17.652;2022-10-17T06:06:26;17.40;;;15.60;;
70727;SDS011;58314;47.722;17.652;2022-10-17T06:09:27;16.48;;;14.65;;
70727;SDS011;58314;47.722;17.652;2022-10-17T06:12:28;23.60;;;15.98;;
70727;SDS011;58314;47.722;17.652;2022-10-17T06:15:28;18.30;;;15.05;;
70727;SDS011;58314;47.722;17.652;2022-10-17T06:18:29;16.77;;;15.07;;
70727;SDS011;58314;47.722;17.652;2022-10-17T06:21:30;17.35;;;14.07;;
70727;SDS011;58314;47.722;17.652;2022-10-17T06:24:35;17.00;;;14.57;;
70727;SDS011;58314;47.722;17.652;2022-10-17T06:27:36;16.23;;;14.48;;
70727;SDS011;58314;47.722;17.652;2022-10-17T06:30:37;16.55;;;14.88;;
70727;SDS011;58314;47.722;17.652;2022-10-17T06:33:39;18.42;;;14.52;;
70727;SDS011;58314;47.722;17.652;2022-10-17T06:36:40;15.82;;;14.23;;
70727;SDS011;58314;47.722;17.652;2022-10-17T06:39:40;16.60;;;13.88;;
70727;SDS011;58314;47.722;17.652;2022-10-17T06:42:41;17.83;;;16.02;;
70727;SDS011;58314;47.722;17.652;2022-10-17T06:45:44;15.82;;;14.20;;
70727;SDS011;58314;47.722;17.652;2022-10-17T06:48:46;15.32;;;13.85;;
70727;SDS011;58314;47.722;17.652;2022-10-17T06:51:47;15.50;;;13.85;;
70727;SDS011;58314;47.722;17.652;2022-10-17T06:54:47;15.77;;;14.18;;
70727;SDS011;58314;47.722;17.652;2022-10-17T06:57:52;14.98;;;13.50;;
70727;SDS011;58314;47.722;17.652;2022-10-17T07:01:00;17.02;;;13.38;;
70727;SDS011;58314;47.722;17.652;2022-10-17T07:04:06;13.98;;;12.50;;
70727;SDS011;58314;47.722;17.652;2022-10-17T07:07:06;17.30;;;15.50;;
70727;SDS011;58314;47.722;17.652;2022-10-17T07:10:07;16.52;;;14.82;;
70727;SDS011;58314;47.722;17.652;2022-10-17T07:13:08;15.05;;;13.52;;
70727;SDS011;58314;47.722;17.652;2022-10-17T07:16:09;14.85;;;13.35;;
70727;SDS011;58314;47.722;17.652;2022-10-17T07:19:10;14.77;;;13.27;;
70727;SDS011;58314;47.722;17.652;2022-10-17T07:22:11;15.60;;;12.63;;
70727;SDS011;58314;47.722;17.652;2022-10-17T07:25:12;15.07;;;13.30;;
70727;SDS011;58314;47.722;17.652;2022-10-17T07:28:13;14.43;;;13.02;;
70727;SDS011;58314;47.722;17.652;2022-10-17T07:31:16;16.02;;;14.35;;
70727;SDS011;58314;47.722;17.652;2022-10-17T07:34:17;18.35;;;14.13;;
70727;SDS011;58314;47.722;17.652;2022-10-17T07:37:18;15.70;;;12.95;;
70727;SDS011;58314;47.722;17.652;2022-10-17T07:40:19;14.88;;;13.38;;
70727;SDS011;58314;47.722;17.652;2022-10-17T07:43:19;15.50;;;13.02;;
70727;SDS011;58314;47.722;17.652;2022-10-17T07:46:20;14.20;;;11.98;;
70727;SDS011;58314;47.722;17.652;2022-10-17T07:49:21;15.45;;;13.32;;
70727;SDS011;58314;47.722;17.652;2022-10-17T07:52:21;14.75;;;13.25;;
70727;SDS011;58314;47.722;17.652;2022-10-17T07:55:23;17.30;;;13.32;;
70727;SDS011;58314;47.722;17.652;2022-10-17T07:58:24;15.25;;;12.88;;
70727;SDS011;58314;47.722;17.652;2022-10-17T08:01:25;14.15;;;12.18;;
70727;SDS011;58314;47.722;17.652;2022-10-17T08:04:27;14.25;;;11.98;;
70727;SDS011;58314;47.722;17.652;2022-10-17T08:07:28;12.82;;;11.43;;
70727;SDS011;58314;47.722;17.652;2022-10-17T08:10:29;13.38;;;10.93;;
70727;SDS011;58314;47.722;17.652;2022-10-17T08:13:30;12.02;;;10.82;;
70727;SDS011;58314;47.722;17.652;2022-10-17T08:16:31;14.43;;;10.50;;
70727;SDS011;58314;47.722;17.652;2022-10-17T08:19:32;11.35;;;10.20;;
70727;SDS011;58314;47.722;17.652;2022-10-17T08:22:32;11.32;;;10.23;;
70727;SDS011;58314;47.722;17.652;2022-10-17T08:25:36;12.40;;;9.80;;
70727;SDS011;58314;47.722;17.652;2022-10-17T08:28:38;10.80;;;9.65;;
70727;SDS011;58314;47.722;17.652;2022-10-17T08:31:40;11.38;;;10.10;;
70727;SDS011;58314;47.722;17.652;2022-10-17T08:34:40;11.25;;;10.15;;
70727;SDS011;58314;47.722;17.652;2022-10-17T08:37:41;13.60;;;10.38;;
70727;SDS011;58314;47.722;17.652;2022-10-17T08:40:47;14.48;;;10.30;;
70727;SDS011;58314;47.722;17.652;2022-10-17T08:47:14;11.77;;;10.50;;
70727;SDS011;58314;47.722;17.652;2022-10-17T08:50:32;12.23;;;9.40;;
70727;SDS011;58314;47.722;17.652;2022-10-17T08:56:47;11.70;;;10.40;;
70727;SDS011;58314;47.722;17.652;2022-10-17T08:59:51;14.85;;;10.27;;
70727;SDS011;58314;47.722;17.652;2022-10-17T09:22:36;12.95;;;8.20;;
70727;SDS011;58314;47.722;17.652;2022-10-17T09:25:46;8.52;;;7.60;;
70727;SDS011;58314;47.722;17.652;2022-10-17T09:28:51;9.38;;;7.70;;
70727;SDS011;58314;47.722;17.652;2022-10-17T09:31:57;9.02;;;7.72;;
70727;SDS011;58314;47.722;17.652;2022-10-17T09:35:01;9.80;;;7.30;;
70727;SDS011;58314;47.722;17.652;2022-10-17T09:38:02;10.00;;;7.97;;
70727;SDS011;58314;47.722;17.652;2022-10-17T09:41:04;11.65;;;7.45;;
70727;SDS011;58314;47.722;17.652;2022-10-17T09:47:27;8.82;;;6.78;;
70727;SDS011;58314;47.722;17.652;2022-10-17T09:50:32;8.35;;;6.78;;
70727;SDS011;58314;47.722;17.652;2022-10-17T09:53:38;8.70;;;6.40;;
70727;SDS011;58314;47.722;17.652;2022-10-17T10:00:19;10.57;;;6.32;;
70727;SDS011;58314;47.722;17.652;2022-10-17T10:03:31;11.30;;;5.80;;
70727;SDS011;58314;47.722;17.652;2022-10-17T10:06:31;6.88;;;5.47;;
70727;SDS011;58314;47.722;17.652;2022-10-17T10:09:33;10.20;;;5.20;;
70727;SDS011;58314;47.722;17.652;2022-10-17T10:12:37;9.25;;;5.93;;
70727;SDS011;58314;47.722;17.652;2022-10-17T10:15:40;6.25;;;5.05;;
70727;SDS011;58314;47.722;17.652;2022-10-17T10:18:42;6.97;;;5.35;;
70727;SDS011;58314;47.722;17.652;2022-10-17T10:21:53;6.63;;;4.80;;
70727;SDS011;58314;47.722;17.652;2022-10-17T10:25:15;8.98;;;5.35;;
70727;SDS011;58314;47.722;17.652;2022-10-17T10:28:16;8.07;;;4.95;;
70727;SDS011;58314;47.722;17.652;2022-10-17T10:31:23;6.85;;;4.93;;
70727;SDS011;58314;47.722;17.652;2022-10-17T10:34:30;8.63;;;4.53;;
70727;SDS011;58314;47.722;17.652;2022-10-17T10:37:33;5.15;;;4.25;;
70727;SDS011;58314;47.722;17.652;2022-10-17T10:40:46;5.22;;;4.20;;
70727;SDS011;58314;47.722;17.652;2022-10-17T10:43:52;5.30;;;3.75;;
70727;SDS011;58314;47.722;17.652;2022-10-17T10:53:40;4.93;;;3.50;;
70727;SDS011;58314;47.722;17.652;2022-10-17T10:56:51;5.70;;;3.58;;
70727;SDS011;58314;47.722;17.652;2022-10-17T11:06:13;5.40;;;3.40;;
70727;SDS011;58314;47.722;17.652;2022-10-17T11:12:58;5.15;;;3.10;;
70727;SDS011;58314;47.722;17.652;2022-10-17T11:19:37;5.85;;;3.30;;
70727;SDS011;58314;47.722;17.652;2022-10-17T11:22:45;4.13;;;3.40;;
70727;SDS011;58314;47.722;17.652;2022-10-17T11:25:49;4.57;;;3.20;;
70727;SDS011;58314;47.722;17.652;2022-10-17T11:28:52;6.63;;;3.33;;
70727;SDS011;58314;47.722;17.652;2022-10-17T11:31:53;5.70;;;3.55;;
70727;SDS011;58314;47.722;17.652;2022-10-17T11:35:00;3.20;;;2.88;;
70727;SDS011;58314;47.722;17.652;2022-10-17T11:41:31;7.25;;;3.13;;
70727;SDS011;58314;47.722;17.652;2022-10-17T11:44:37;3.35;;;2.80;;
70727;SDS011;58314;47.722;17.652;2022-10-17T11:47:46;5.03;;;2.97;;
70727;SDS011;58314;47.722;17.652;2022-10-17T11:50:52;4.75;;;3.05;;
70727;SDS011;58314;47.722;17.652;2022-10-17T11:54:07;5.40;;;3.30;;
70727;SDS011;58314;47.722;17.652;2022-10-17T11:57:17;4.18;;;3.25;;
70727;SDS011;58314;47.722;17.652;2022-10-17T12:00:26;5.97;;;3.15;;
70727;SDS011;58314;47.722;17.652;2022-10-17T12:03:41;5.28;;;3.05;;
70727;SDS011;58314;47.722;17.652;2022-10-17T12:09:55;5.07;;;2.75;;
70727;SDS011;58314;47.722;17.652;2022-10-17T12:16:42;6.00;;;3.13;;
70727;SDS011;58314;47.722;17.652;2022-10-17T12:19:44;5.50;;;3.20;;
70727;SDS011;58314;47.722;17.652;2022-10-17T12:23:45;4.10;;;3.10;;
70727;SDS011;58314;47.722;17.652;2022-10-17T12:26:16;5.32;;;3.17;;
70727;SDS011;58314;47.722;17.652;2022-10-17T12:29:27;5.03;;;3.13;;
70727;SDS011;58314;47.722;17.652;2022-10-17T12:32:29;7.72;;;3.75;;
70727;SDS011;58314;47.722;17.652;2022-10-17T12:35:31;5.03;;;3.45;;
70727;SDS011;58314;47.722;17.652;2022-10-17T12:38:33;8.13;;;3.65;;
70727;SDS011;58314;47.722;17.652;2022-10-17T12:44:37;7.60;;;4.20;;
70727;SDS011;58314;47.722;17.652;2022-10-17T12:47:38;5.25;;;3.60;;
70727;SDS011;58314;47.722;17.652;2022-10-17T12:54:15;7.03;;;3.65;;
70727;SDS011;58314;47.722;17.652;2022-10-17T12:57:58;4.80;;;3.50;;
70727;SDS011;58314;47.722;17.652;2022-10-17T13:00:51;7.80;;;3.90;;
70727;SDS011;58314;47.722;17.652;2022-10-17T13:03:56;6.43;;;3.72;;
70727;SDS011;58314;47.722;17.652;2022-10-17T13:07:01;6.07;;;4.07;;
70727;SDS011;58314;47.722;17.652;2022-10-17T13:10:03;7.35;;;5.55;;
70727;SDS011;58314;47.722;17.652;2022-10-17T13:13:11;8.25;;;4.20;;
70727;SDS011;58314;47.722;17.652;2022-10-17T13:16:29;5.95;;;4.25;;
70727;SDS011;58314;47.722;17.652;2022-10-17T13:19:39;7.05;;;4.43;;
70727;SDS011;58314;47.722;17.652;2022-10-17T13:22:43;5.25;;;4.05;;
70727;SDS011;58314;47.722;17.652;2022-10-17T13:25:44;7.63;;;4.50;;
70727;SDS011;58314;47.722;17.652;2022-10-17T13:28:45;9.18;;;4.10;;
70727;SDS011;58314;47.722;17.652;2022-10-17T13:32:01;6.50;;;4.20;;
70727;SDS011;58314;47.722;17.652;2022-10-17T13:38:12;7.38;;;4.40;;
70727;SDS011;58314;47.722;17.652;2022-10-17T13:41:13;7.68;;;4.72;;
70727;SDS011;58314;47.722;17.652;2022-10-17T13:44:17;6.97;;;4.35;;
70727;SDS011;58314;47.722;17.652;2022-10-17T13:47:21;7.50;;;5.15;;
70727;SDS011;58314;47.722;17.652;2022-10-17T13:50:26;6.22;;;4.10;;
70727;SDS011;58314;47.722;17.652;2022-10-17T13:53:32;8.48;;;4.45;;
70727;SDS011;58314;47.722;17.652;2022-10-17T13:56:36;7.22;;;4.55;;
70727;SDS011;58314;47.722;17.652;2022-10-17T13:59:38;7.88;;;5.40;;
70727;SDS011;58314;47.722;17.652;2022-10-17T14:02:41;6.25;;;4.28;;
70727;SDS011;58314;47.722;17.652;2022-10-17T14:05:58;7.85;;;4.50;;
70727;SDS011;58314;47.722;17.652;2022-10-17T14:09:04;6.88;;;4.80;;
70727;SDS011;58314;47.722;17.652;2022-10-17T14:12:08;6.80;;;4.70;;
70727;SDS011;58314;47.722;17.652;2022-10-17T14:15:15;7.13;;;4.78;;
70727;SDS011;58314;47.722;17.652;2022-10-17T14:18:18;6.75;;;4.47;;
70727;SDS011;58314;47.722;17.652;2022-10-17T14:21:23;5.93;;;4.63;;
70727;SDS011;58314;47.722;17.652;2022-10-17T14:24:28;5.97;;;4.38;;
70727;SDS011;58314;47.722;17.652;2022-10-17T14:27:50;5.65;;;4.28;;
70727;SDS011;58314;47.722;17.652;2022-10-17T14:31:07;7.55;;;4.63;;
70727;SDS011;58314;47.722;17.652;2022-10-17T14:34:20;7.60;;;4.60;;
70727;SDS011;58314;47.722;17.652;2022-10-17T14:37:29;6.45;;;4.40;;
70727;SDS011;58314;47.722;17.652;2022-10-17T14:40:35;7.72;;;4.22;;
70727;SDS011;58314;47.722;17.652;2022-10-17T14:43:36;6.13;;;4.32;;
70727;SDS011;58314;47.722;17.652;2022-10-17T14:46:42;6.95;;;3.83;;
70727;SDS011;58314;47.722;17.652;2022-10-17T14:49:46;7.40;;;4.25;;
70727;SDS011;58314;47.722;17.652;2022-10-17T14:56:17;7.28;;;4.53;;
70727;SDS011;58314;47.722;17.652;2022-10-17T14:59:22;6.68;;;4.00;;
70727;SDS011;58314;47.722;17.652;2022-10-17T15:02:26;7.32;;;4.03;;
70727;SDS011;58314;47.722;17.652;2022-10-17T15:05:28;7.10;;;4.47;;
70727;SDS011;58314;47.722;17.652;2022-10-17T15:08:29;6.53;;;3.60;;
70727;SDS011;58314;47.722;17.652;2022-10-17T15:11:29;6.85;;;4.68;;
70727;SDS011;58314;47.722;17.652;2022-10-17T15:14:30;11.95;;;6.18;;
70727;SDS011;58314;47.722;17.652;2022-10-17T15:17:31;7.90;;;6.97;;
70727;SDS011;58314;47.722;17.652;2022-10-17T15:20:36;7.80;;;6.53;;
70727;SDS011;58314;47.722;17.652;2022-10-17T15:23:37;6.30;;;5.18;;
70727;SDS011;58314;47.722;17.652;2022-10-17T15:26:38;6.47;;;4.60;;
70727;SDS011;58314;47.722;17.652;2022-10-17T15:29:39;6.72;;;4.40;;
70727;SDS011;58314;47.722;17.652;2022-10-17T15:32:40;8.73;;;4.40;;
70727;SDS011;58314;47.722;17.652;2022-10-17T15:35:40;9.65;;;4.40;;
70727;SDS011;58314;47.722;17.652;2022-10-17T15:38:42;10.55;;;4.60;;
70727;SDS011;58314;47.722;17.652;2022-10-17T15:41:42;7.43;;;4.28;;
70727;SDS011;58314;47.722;17.652;2022-10-17T15:44:43;8.68;;;4.38;;
70727;SDS011;58314;47.722;17.652;2022-10-17T15:47:48;7.65;;;4.68;;
70727;SDS011;58314;47.722;17.652;2022-10-17T15:50:51;7.20;;;4.72;;
70727;SDS011;58314;47.722;17.652;2022-10-17T15:53:52;10.95;;;9.40;;
70727;SDS011;58314;47.722;17.652;2022-10-17T15:56:53;22.90;;;20.58;;
70727;SDS011;58314;47.722;17.652;2022-10-17T15:59:54;28.13;;;25.63;;
70727;SDS011;58314;47.722;17.652;2022-10-17T16:02:58;15.63;;;14.13;;
70727;SDS011;58314;47.722;17.652;2022-10-17T16:05:59;7.80;;;5.78;;
70727;SDS011;58314;47.722;17.652;2022-10-17T16:09:00;9.77;;;5.50;;
70727;SDS011;58314;47.722;17.652;2022-10-17T16:12:00;12.52;;;6.15;;
70727;SDS011;58314;47.722;17.652;2022-10-17T16:15:01;10.43;;;6.35;;
70727;SDS011;58314;47.722;17.652;2022-10-17T16:18:03;16.30;;;8.93;;
70727;SDS011;58314;47.722;17.652;2022-10-17T16:21:04;15.85;;;9.63;;
70727;SDS011;58314;47.722;17.652;2022-10-17T16:24:05;16.35;;;9.40;;
70727;SDS011;58314;47.722;17.652;2022-10-17T16:27:06;13.65;;;8.07;;
70727;SDS011;58314;47.722;17.652;2022-10-17T16:30:08;12.35;;;7.20;;
70727;SDS011;58314;47.722;17.652;2022-10-17T16:33:09;11.85;;;7.40;;
70727;SDS011;58314;47.722;17.652;2022-10-17T16:36:10;14.68;;;10.73;;
70727;SDS011;58314;47.722;17.652;2022-10-17T16:39:11;12.35;;;8.80;;
70727;SDS011;58314;47.722;17.652;2022-10-17T16:42:12;10.70;;;7.22;;
70727;SDS011;58314;47.722;17.652;2022-10-17T16:45:16;12.75;;;7.47;;
70727;SDS011;58314;47.722;17.652;2022-10-17T16:48:19;14.73;;;8.23;;
70727;SDS011;58314;47.722;17.652;2022-10-17T16:51:20;13.70;;;8.32;;
70727;SDS011;58314;47.722;17.652;2022-10-17T16:54:21;9.98;;;7.53;;
70727;SDS011;58314;47.722;17.652;2022-10-17T16:57:21;12.73;;;9.13;;
70727;SDS011;58314;47.722;17.652;2022-10-17T17:00:22;15.10;;;10.60;;
70727;SDS011;58314;47.722;17.652;2022-10-17T17:03:23;12.93;;;9.95;;
70727;SDS011;58314;47.722;17.652;2022-10-17T17:06:25;13.07;;;8.95;;
70727;SDS011;58314;47.722;17.652;2022-10-17T17:09:27;11.52;;;8.02;;
70727;SDS011;58314;47.722;17.652;2022-10-17T17:12:28;10.45;;;7.68;;
70727;SDS011;58314;47.722;17.652;2022-10-17T17:15:28;13.20;;;7.85;;
70727;SDS011;58314;47.722;17.652;2022-10-17T17:18:29;9.90;;;7.50;;
70727;SDS011;58314;47.722;17.652;2022-10-17T17:21:30;11.02;;;7.07;;
70727;SDS011;58314;47.722;17.652;2022-10-17T17:24:31;8.13;;;6.35;;
70727;SDS011;58314;47.722;17.652;2022-10-17T17:27:32;10.55;;;7.13;;
70727;SDS011;58314;47.722;17.652;2022-10-17T17:30:34;9.02;;;6.93;;
70727;SDS011;58314;47.722;17.652;2022-10-17T17:33:36;10.27;;;7.28;;
70727;SDS011;58314;47.722;17.652;2022-10-17T17:36:38;10.70;;;8.30;;
70727;SDS011;58314;47.722;17.652;2022-10-17T17:39:39;8.90;;;7.00;;
70727;SDS011;58314;47.722;17.652;2022-10-17T17:42:39;8.65;;;6.65;;
70727;SDS011;58314;47.722;17.652;2022-10-17T17:45:40;14.07;;;11.18;;
70727;SDS011;58314;47.722;17.652;2022-10-17T17:48:41;9.80;;;6.95;;
70727;SDS011;58314;47.722;17.652;2022-10-17T17:51:43;8.70;;;6.50;;
70727;SDS011;58314;47.722;17.652;2022-10-17T17:54:45;10.38;;;6.53;;
70727;SDS011;58314;47.722;17.652;2022-10-17T17:57:46;11.00;;;7.20;;
70727;SDS011;58314;47.722;17.652;2022-10-17T18:00:47;9.23;;;6.47;;
70727;SDS011;58314;47.722;17.652;2022-10-17T18:03:48;8.50;;;6.05;;
70727;SDS011;58314;47.722;17.652;2022-10-17T18:06:51;7.50;;;5.85;;
70727;SDS011;58314;47.722;17.652;2022-10-17T18:09:51;10.43;;;6.60;;
70727;SDS011;58314;47.722;17.652;2022-10-17T18:12:52;8.45;;;5.88;;
70727;SDS011;58314;47.722;17.652;2022-10-17T18:15:56;9.02;;;6.07;;
70727;SDS011;58314;47.722;17.652;2022-10-17T18:19:00;7.65;;;5.43;;
70727;SDS011;58314;47.722;17.652;2022-10-17T18:22:04;9.43;;;6.13;;
70727;SDS011;58314;47.722;17.652;2022-10-17T18:25:05;8.07;;;5.93;;
70727;SDS011;58314;47.722;17.652;2022-10-17T18:28:06;9.25;;;6.57;;
70727;SDS011;58314;47.722;17.652;2022-10-17T18:31:12;10.07;;;6.25;;
70727;SDS011;58314;47.722;17.652;2022-10-17T18:34:14;8.88;;;6.85;;
70727;SDS011;58314;47.722;17.652;2022-10-17T18:37:15;10.23;;;7.40;;
70727;SDS011;58314;47.722;17.652;2022-10-17T18:40:16;13.82;;;8.55;;
70727;SDS011;58314;47.722;17.652;2022-10-17T18:43:16;12.10;;;7.70;;
70727;SDS011;58314;47.722;17.652;2022-10-17T18:46:18;11.68;;;8.15;;
70727;SDS011;58314;47.722;17.652;2022-10-17T18:49:23;11.50;;;8.50;;
70727;SDS011;58314;47.722;17.652;2022-10-17T18:52:24;12.82;;;8.65;;
70727;SDS011;58314;47.722;17.652;2022-10-17T18:55:25;13.32;;;9.32;;
70727;SDS011;58314;47.722;17.652;2022-10-17T18:58:26;16.77;;;10.57;;
70727;SDS011;58314;47.722;17.652;2022-10-17T19:01:26;12.20;;;9.77;;
70727;SDS011;58314;47.722;17.652;2022-10-17T19:04:27;14.00;;;11.05;;
70727;SDS011;58314;47.722;17.652;2022-10-17T19:07:28;13.13;;;9.55;;
70727;SDS011;58314;47.722;17.652;2022-10-17T19:10:31;10.07;;;8.05;;
70727;SDS011;58314;47.722;17.652;2022-10-17T19:13:32;14.65;;;8.38;;
70727;SDS011;58314;47.722;17.652;2022-10-17T19:16:34;13.55;;;8.43;;
70727;SDS011;58314;47.722;17.652;2022-10-17T19:19:36;11.30;;;7.70;;
70727;SDS011;58314;47.722;17.652;2022-10-17T19:22:36;10.63;;;7.60;;
70727;SDS011;58314;47.722;17.652;2022-10-17T19:25:37;11.90;;;8.15;;
70727;SDS011;58314;47.722;17.652;2022-10-17T19:28:38;12.30;;;9.52;;